Time;durP1;ratioP1;P1;durP2;ratioP2;P2;SDS_P1;SDS_P2;PMS_P1;PMS_P2;Temp;Humidity;BMP_temperature;BMP_pressure;BME280_temperature;BME280_humidity;BME280_pressure;Samples;Min_cycle;Max_cycle;Signal;HPM_P1;HPM_P2
2021/06/11 00:01:00;;;;;;;8.02;7.20;;;18.00;88.90;;;;;;5121336;28;20096;-48
2021/06/11 00:03:25;;;;;;;8.80;7.13;;;18.00;89.40;;;;;;5120859;27;20027;-47
2021/06/11 00:05:51;;;;;;;7.85;6.95;;;18.00;90.70;;;;;;5131853;27;20038;-46
2021/06/11 00:08:16;;;;;;;7.68;6.93;;;17.90;91.60;;;;;;5131586;27;20452;-48
2021/06/11 00:10:42;;;;;;;8.13;7.20;;;17.90;92.40;;;;;;5130909;27;20446;-47
2021/06/11 00:13:08;;;;;;;8.15;7.40;;;17.70;92.90;;;;;;5131402;27;20098;-47
2021/06/11 00:15:33;;;;;;;8.82;6.88;;;17.70;93.70;;;;;;5131121;27;20065;-49
2021/06/11 00:17:59;;;;;;;8.50;7.20;;;17.70;94.80;;;;;;5130264;27;20055;-47
2021/06/11 00:20:25;;;;;;;8.18;6.97;;;17.60;96.20;;;;;;5131005;27;20068;-47
2021/06/11 00:22:51;;;;;;;9.50;6.95;;;17.60;97.30;;;;;;5131535;27;20034;-47
2021/06/11 00:25:20;;;;;;;7.57;6.75;;;17.50;97.20;;;;;;5131252;27;20032;-47
2021/06/11 00:27:46;;;;;;;8.80;7.15;;;17.60;97.50;;;;;;5131199;27;20492;-48
2021/06/11 00:30:12;;;;;;;10.07;7.70;;;17.50;97.80;;;;;;5126325;27;20240;-48
2021/06/11 00:32:39;;;;;;;8.68;7.53;;;17.40;99.10;;;;;;5122939;27;20096;-46
2021/06/11 00:35:06;;;;;;;10.77;7.78;;;17.40;99.60;;;;;;5131153;27;20015;-46
2021/06/11 00:37:31;;;;;;;9.18;7.93;;;17.40;99.90;;;;;;5131049;27;20030;-45
2021/06/11 00:39:58;;;;;;;10.30;8.57;;;17.30;99.90;;;;;;5130325;27;20027;-45
2021/06/11 00:42:23;;;;;;;9.88;8.23;;;17.30;99.90;;;;;;5130641;27;20092;-48
2021/06/11 00:44:49;;;;;;;8.88;7.72;;;17.20;99.90;;;;;;5129535;27;20019;-47
2021/06/11 00:47:14;;;;;;;9.63;7.85;;;17.10;99.90;;;;;;5130668;27;20103;-46
2021/06/11 00:49:40;;;;;;;9.35;8.38;;;17.10;99.90;;;;;;5130313;27;20062;-47
2021/06/11 00:52:08;;;;;;;10.85;8.48;;;17.20;99.90;;;;;;5129504;27;20052;-47
2021/06/11 00:54:34;;;;;;;11.25;8.95;;;17.10;99.90;;;;;;5130475;27;20023;-48
2021/06/11 00:57:00;;;;;;;9.27;8.25;;;17.00;99.90;;;;;;5130686;27;20023;-46
2021/06/11 00:59:26;;;;;;;12.77;9.27;;;17.00;99.90;;;;;;5129820;27;20068;-46
2021/06/11 01:01:52;;;;;;;9.20;8.18;;;17.00;99.90;;;;;;5115517;27;20114;-46
2021/06/11 01:04:17;;;;;;;9.25;8.20;;;16.90;99.90;;;;;;5130054;27;20126;-47
2021/06/11 01:06:43;;;;;;;12.05;8.02;;;16.90;99.90;;;;;;5130872;27;20506;-46
2021/06/11 01:09:11;;;;;;;9.32;8.38;;;16.80;99.90;;;;;;5129868;27;20049;-46
2021/06/11 01:11:38;;;;;;;11.73;9.15;;;16.80;99.90;;;;;;5130210;27;20059;-48
2021/06/11 01:14:06;;;;;;;9.95;8.95;;;16.70;99.90;;;;;;5129902;27;20350;-46
2021/06/11 01:16:32;;;;;;;11.32;9.52;;;16.70;99.90;;;;;;5130251;27;20065;-45
2021/06/11 01:18:57;;;;;;;16.73;11.57;;;16.70;99.90;;;;;;5130336;27;20473;-48
2021/06/11 01:21:25;;;;;;;10.07;9.00;;;16.60;99.90;;;;;;5129795;27;20087;-46
2021/06/11 01:24:23;;;;;;;12.15;9.45;;;16.60;99.90;;;;;;5130432;27;20027;-46
2021/06/11 01:26:54;;;;;;;9.85;8.85;;;16.60;99.90;;;;;;5129873;27;20034;-46
2021/06/11 01:29:24;;;;;;;10.88;9.77;;;16.50;99.90;;;;;;5129407;27;20023;-48
2021/06/11 01:31:57;;;;;;;10.95;9.15;;;16.50;99.90;;;;;;5116950;27;20065;-47
2021/06/11 01:34:27;;;;;;;10.18;9.10;;;16.40;99.90;;;;;;5088641;28;20035;-45
2021/06/11 01:36:56;;;;;;;10.15;9.13;;;16.40;99.90;;;;;;5087512;28;20024;-46
2021/06/11 01:39:22;;;;;;;11.48;9.57;;;16.40;99.90;;;;;;5088264;28;20024;-45
2021/06/11 01:41:49;;;;;;;10.25;8.43;;;16.40;99.90;;;;;;5088869;28;20478;-45
2021/06/11 01:44:16;;;;;;;10.15;8.63;;;16.30;99.90;;;;;;5088630;28;20028;-45
2021/06/11 01:46:45;;;;;;;10.25;9.00;;;16.30;99.90;;;;;;5088523;28;20020;-45
2021/06/11 01:49:13;;;;;;;9.55;8.55;;;16.20;99.90;;;;;;5088307;28;20103;-48
2021/06/11 01:51:39;;;;;;;9.88;8.88;;;16.20;99.90;;;;;;5088671;28;20386;-44
2021/06/11 01:54:08;;;;;;;9.95;8.95;;;16.20;99.90;;;;;;5088756;28;20058;-45
2021/06/11 01:56:34;;;;;;;10.30;8.90;;;16.10;99.90;;;;;;5088753;28;20118;-48
2021/06/11 01:59:01;;;;;;;8.95;7.93;;;16.10;99.90;;;;;;5088259;28;20020;-45
2021/06/11 02:01:27;;;;;;;10.25;9.25;;;16.00;99.90;;;;;;5108705;27;20593;-47
2021/06/11 02:03:54;;;;;;;10.45;9.27;;;16.00;99.90;;;;;;5125415;27;20318;-44
2021/06/11 02:06:21;;;;;;;11.68;9.57;;;16.00;99.90;;;;;;5129173;27;20035;-46
2021/06/11 02:08:50;;;;;;;12.00;8.77;;;16.00;99.90;;;;;;5129686;27;20030;-44
2021/06/11 02:11:16;;;;;;;10.35;9.25;;;16.00;99.90;;;;;;5128381;27;20408;-45
2021/06/11 02:13:44;;;;;;;10.82;9.43;;;16.00;99.90;;;;;;5127189;27;20020;-46
2021/06/11 02:16:10;;;;;;;15.18;10.25;;;16.00;99.90;;;;;;5128262;27;20190;-45
2021/06/11 02:18:36;;;;;;;11.60;10.40;;;16.00;99.90;;;;;;5129320;27;20023;-45
2021/06/11 02:21:06;;;;;;;10.23;9.20;;;16.00;99.90;;;;;;5128363;27;20023;-45
2021/06/11 02:23:32;;;;;;;10.77;8.90;;;16.00;99.90;;;;;;5127652;27;20031;-45
2021/06/11 02:25:57;;;;;;;11.30;9.23;;;16.00;99.90;;;;;;5128149;27;20031;-45
2021/06/11 02:28:23;;;;;;;12.07;10.27;;;16.00;99.90;;;;;;5128720;27;20027;-45
2021/06/11 02:30:49;;;;;;;10.40;9.32;;;15.90;99.90;;;;;;5123204;27;20480;-45
2021/06/11 02:33:15;;;;;;;13.98;9.80;;;15.90;99.90;;;;;;5120125;27;20112;-45
2021/06/11 02:35:41;;;;;;;11.48;9.85;;;15.80;99.90;;;;;;5128887;27;20472;-45
2021/06/11 02:38:07;;;;;;;13.75;9.40;;;15.80;99.90;;;;;;5128786;27;20088;-45
2021/06/11 02:40:32;;;;;;;12.68;10.10;;;15.80;99.90;;;;;;5128040;27;20306;-45
2021/06/11 02:43:08;;;;;;;11.65;9.60;;;15.80;99.90;;;;;;5128956;27;20237;-45
2021/06/11 02:45:40;;;;;;;14.48;9.85;;;15.80;99.90;;;;;;5128429;27;20049;-44
2021/06/11 02:48:26;;;;;;;13.30;9.95;;;15.70;99.90;;;;;;5128556;27;20366;-46
2021/06/11 02:51:17;;;;;;;13.25;10.13;;;15.70;99.90;;;;;;5127114;27;20539;-46
2021/06/11 02:53:45;;;;;;;12.55;9.85;;;15.70;99.90;;;;;;5117198;27;20050;-45
2021/06/11 02:56:21;;;;;;;10.05;9.00;;;15.70;99.90;;;;;;5126887;27;20027;-45
2021/06/11 02:58:54;;;;;;;11.43;9.85;;;15.70;99.90;;;;;;5128341;27;20023;-46
2021/06/11 03:01:20;;;;;;;11.25;10.15;;;15.70;99.90;;;;;;5118001;27;20124;-46
2021/06/11 03:03:47;;;;;;;13.43;10.27;;;15.60;99.90;;;;;;5122033;27;20023;-48
2021/06/11 03:06:16;;;;;;;11.93;10.40;;;15.60;99.90;;;;;;5128431;27;20039;-45
2021/06/11 03:08:44;;;;;;;10.75;9.65;;;15.40;99.90;;;;;;5128357;27;20114;-45
2021/06/11 03:11:13;;;;;;;11.38;10.18;;;15.40;99.90;;;;;;5127501;27;20227;-45
2021/06/11 03:13:41;;;;;;;10.05;9.02;;;15.30;99.90;;;;;;5128381;27;20031;-47
2021/06/11 03:16:06;;;;;;;10.82;9.43;;;15.30;99.90;;;;;;5127978;27;20045;-45
2021/06/11 03:18:36;;;;;;;10.77;9.68;;;15.20;99.90;;;;;;5127972;28;20027;-45
2021/06/11 03:21:15;;;;;;;11.20;9.68;;;15.20;99.90;;;;;;5127890;27;20022;-47
2021/06/11 03:23:58;;;;;;;10.50;9.40;;;15.10;99.90;;;;;;5128478;27;20031;-45
2021/06/11 03:26:46;;;;;;;10.82;9.70;;;15.10;99.90;;;;;;5128311;27;20280;-45
2021/06/11 03:29:14;;;;;;;9.52;8.52;;;15.10;99.90;;;;;;5126252;28;20027;-44
2021/06/11 03:31:45;;;;;;;11.00;9.85;;;15.20;99.90;;;;;;5116813;27;20012;-45
2021/06/11 03:34:19;;;;;;;11.80;9.57;;;15.10;99.90;;;;;;5096799;28;20192;-45
2021/06/11 03:36:46;;;;;;;11.52;10.23;;;15.20;99.90;;;;;;5095769;28;20039;-45
2021/06/11 03:39:20;;;;;;;10.40;9.30;;;15.20;99.90;;;;;;5099981;28;20111;-46
2021/06/11 03:41:46;;;;;;;11.57;10.15;;;15.20;99.90;;;;;;5100336;28;20024;-46
2021/06/11 03:44:14;;;;;;;10.45;9.35;;;15.20;99.90;;;;;;5099822;28;20481;-46
2021/06/11 03:46:42;;;;;;;10.68;9.57;;;15.30;99.90;;;;;;5101248;28;20099;-46
2021/06/11 03:49:09;;;;;;;10.57;8.65;;;15.30;99.90;;;;;;5099453;28;20076;-46
2021/06/11 03:51:38;;;;;;;10.10;9.10;;;15.30;99.90;;;;;;5097630;28;20072;-45
2021/06/11 03:54:07;;;;;;;10.32;9.23;;;15.30;99.90;;;;;;5102112;28;20488;-45
2021/06/11 03:56:35;;;;;;;10.05;9.05;;;15.30;99.90;;;;;;5099359;28;20390;-46
2021/06/11 03:59:03;;;;;;;11.10;10.00;;;15.40;99.90;;;;;;5100084;28;20012;-46
2021/06/11 04:01:33;;;;;;;11.93;10.25;;;15.40;99.90;;;;;;5105285;27;20103;-47
2021/06/11 04:04:00;;;;;;;11.52;10.43;;;15.40;99.90;;;;;;5102586;27;20103;-46
2021/06/11 04:06:31;;;;;;;15.27;11.55;;;15.50;99.90;;;;;;5101828;28;20055;-46
2021/06/11 04:09:05;;;;;;;16.88;13.10;;;15.60;99.90;;;;;;5099416;28;20020;-45
2021/06/11 04:11:33;;;;;;;15.50;12.40;;;15.70;99.90;;;;;;5099403;28;20085;-45
2021/06/11 04:14:01;;;;;;;14.30;12.50;;;15.70;99.90;;;;;;5100330;28;20012;-44
2021/06/11 04:16:29;;;;;;;18.17;12.40;;;15.80;99.90;;;;;;5101048;28;20020;-45
2021/06/11 04:18:59;;;;;;;14.32;11.77;;;15.90;99.90;;;;;;5103203;28;20066;-46
2021/06/11 04:21:29;;;;;;;15.00;12.50;;;15.90;99.90;;;;;;5110160;28;20028;-46
2021/06/11 04:24:00;;;;;;;16.53;12.87;;;16.00;99.90;;;;;;5109608;28;20020;-46
2021/06/11 04:26:26;;;;;;;15.00;13.40;;;16.10;99.90;;;;;;5105153;28;20022;-45
2021/06/11 04:28:54;;;;;;;15.85;13.55;;;16.10;99.90;;;;;;5111076;28;20374;-45
2021/06/11 04:31:20;;;;;;;13.93;11.55;;;16.20;99.90;;;;;;5103480;27;20412;-46
2021/06/11 04:33:46;;;;;;;13.40;11.93;;;16.30;99.90;;;;;;5100801;27;20020;-46
2021/06/11 04:36:11;;;;;;;14.98;11.88;;;16.30;99.90;;;;;;5090656;28;20629;-45
2021/06/11 04:39:08;;;;;;;15.38;13.13;;;16.30;99.90;;;;;;5089244;28;20024;-46
2021/06/11 04:41:35;;;;;;;15.75;12.20;;;16.40;99.90;;;;;;5090738;28;20469;-45
2021/06/11 04:44:02;;;;;;;12.82;11.43;;;16.50;99.90;;;;;;5090476;28;20542;-45
2021/06/11 04:46:28;;;;;;;15.30;12.63;;;16.60;99.90;;;;;;5090398;28;20028;-46
2021/06/11 04:48:54;;;;;;;15.05;11.30;;;16.60;99.90;;;;;;5089847;28;20326;-45
2021/06/11 04:51:20;;;;;;;16.80;12.95;;;16.60;99.90;;;;;;5089459;28;20483;-45
2021/06/11 04:53:45;;;;;;;15.35;11.82;;;16.70;99.90;;;;;;5088771;28;20166;-46
2021/06/11 04:56:12;;;;;;;13.02;11.70;;;16.70;99.90;;;;;;5089921;28;20107;-45
2021/06/11 04:58:40;;;;;;;18.10;13.98;;;16.70;99.90;;;;;;5088478;28;20039;-45
2021/06/11 05:01:10;;;;;;;15.43;13.27;;;16.80;99.90;;;;;;5107050;27;20091;-46
2021/06/11 05:03:36;;;;;;;14.70;11.70;;;16.80;99.90;;;;;;5124049;27;20072;-45
2021/06/11 05:06:04;;;;;;;15.60;11.27;;;16.90;99.90;;;;;;5130687;27;20033;-44
2021/06/11 05:08:30;;;;;;;15.40;12.25;;;16.90;99.90;;;;;;5103598;27;20024;-45
2021/06/11 05:10:57;;;;;;;14.68;11.02;;;16.90;99.90;;;;;;5090870;28;20055;-45
2021/06/11 05:13:23;;;;;;;13.15;11.20;;;17.00;99.90;;;;;;5089874;28;20035;-46
2021/06/11 05:15:50;;;;;;;13.48;11.27;;;17.00;99.90;;;;;;5108199;27;20087;-45
2021/06/11 05:18:15;;;;;;;13.23;10.68;;;17.00;99.90;;;;;;5109848;27;20020;-45
2021/06/11 05:20:41;;;;;;;13.65;11.57;;;17.10;99.90;;;;;;5128177;27;20191;-45
2021/06/11 05:23:07;;;;;;;13.27;10.77;;;17.10;99.90;;;;;;5130133;27;20160;-46
2021/06/11 05:25:33;;;;;;;14.90;10.50;;;17.20;99.90;;;;;;5121442;27;20027;-45
2021/06/11 05:27:58;;;;;;;17.65;12.38;;;17.20;99.90;;;;;;5103231;27;20044;-46
2021/06/11 05:30:25;;;;;;;14.55;10.85;;;17.30;99.90;;;;;;5108039;27;20031;-45
2021/06/11 05:32:51;;;;;;;16.58;12.27;;;17.40;99.90;;;;;;5120317;27;20019;-45
2021/06/11 05:35:17;;;;;;;16.88;12.35;;;17.40;99.90;;;;;;5128097;27;20584;-44
2021/06/11 05:37:43;;;;;;;17.60;13.63;;;17.50;99.90;;;;;;5112519;27;20028;-44
2021/06/11 05:40:09;;;;;;;16.33;11.90;;;17.50;99.90;;;;;;5108489;28;20024;-45
2021/06/11 05:42:34;;;;;;;14.73;11.30;;;17.60;99.90;;;;;;5108792;28;20032;-44
2021/06/11 05:45:00;;;;;;;17.52;13.18;;;17.70;99.90;;;;;;5109183;28;20080;-44
2021/06/11 05:47:26;;;;;;;14.90;11.80;;;17.80;99.90;;;;;;5108713;28;20053;-45
2021/06/11 05:49:51;;;;;;;17.65;12.07;;;17.90;99.90;;;;;;5108322;28;20035;-44
2021/06/11 05:52:17;;;;;;;19.20;12.55;;;17.90;99.90;;;;;;5108995;28;20031;-45
2021/06/11 05:54:43;;;;;;;15.15;10.48;;;18.00;99.90;;;;;;5109112;28;20050;-45
2021/06/11 05:57:08;;;;;;;19.33;11.52;;;18.10;99.90;;;;;;5108772;28;20055;-45
2021/06/11 05:59:34;;;;;;;20.08;11.30;;;18.10;99.90;;;;;;5108521;28;20069;-44
2021/06/11 06:01:59;;;;;;;15.13;10.70;;;18.20;99.90;;;;;;5104498;27;20032;-44
2021/06/11 06:04:25;;;;;;;17.17;10.25;;;18.30;99.90;;;;;;5104492;27;20111;-45
2021/06/11 06:06:50;;;;;;;15.90;10.73;;;18.30;99.90;;;;;;5108753;28;20180;-46
2021/06/11 06:09:16;;;;;;;15.57;9.98;;;18.40;99.90;;;;;;5106873;28;20024;-44
2021/06/11 06:11:42;;;;;;;25.95;11.73;;;18.50;99.90;;;;;;5107400;28;20046;-44
2021/06/11 06:14:08;;;;;;;16.25;10.88;;;18.60;99.90;;;;;;5105488;28;20504;-46
2021/06/11 06:16:36;;;;;;;17.90;10.90;;;18.60;99.90;;;;;;5108647;28;20437;-44
2021/06/11 06:19:02;;;;;;;18.88;9.93;;;18.70;99.90;;;;;;5108339;28;20019;-45
2021/06/11 06:21:30;;;;;;;14.32;9.27;;;18.80;99.90;;;;;;5103719;28;20392;-42
2021/06/11 06:23:56;;;;;;;15.48;9.40;;;18.90;99.90;;;;;;5100124;27;20016;-43
2021/06/11 06:26:21;;;;;;;19.35;9.60;;;19.00;99.90;;;;;;5101673;27;20031;-44
2021/06/11 06:28:47;;;;;;;14.68;9.50;;;19.20;99.90;;;;;;5100108;27;20023;-46
2021/06/11 06:31:13;;;;;;;11.88;8.77;;;19.30;99.90;;;;;;5105614;27;20408;-43
2021/06/11 06:33:38;;;;;;;13.40;8.57;;;19.40;99.90;;;;;;5101716;27;20020;-43
2021/06/11 06:36:04;;;;;;;15.70;9.05;;;19.50;99.90;;;;;;5093102;28;20449;-44
2021/06/11 06:38:31;;;;;;;14.60;8.65;;;19.60;99.90;;;;;;5096977;28;20035;-44
2021/06/11 06:41:00;;;;;;;13.13;8.35;;;19.70;99.90;;;;;;5088693;28;20288;-43
2021/06/11 06:43:29;;;;;;;13.65;10.10;;;19.90;99.90;;;;;;5107725;27;20231;-44
2021/06/11 06:45:56;;;;;;;11.77;8.57;;;20.00;99.90;;;;;;5105680;28;20092;-44
2021/06/11 06:48:22;;;;;;;14.18;8.77;;;20.10;99.90;;;;;;5087045;28;20126;-44
2021/06/11 06:50:48;;;;;;;11.85;8.70;;;20.20;99.90;;;;;;5111267;27;20015;-43
2021/06/11 06:53:14;;;;;;;12.85;7.88;;;20.30;99.90;;;;;;5104380;28;20611;-43
2021/06/11 06:55:39;;;;;;;12.80;8.90;;;20.40;99.90;;;;;;5105855;28;20040;-45
2021/06/11 06:58:06;;;;;;;10.10;7.90;;;20.40;99.90;;;;;;5104516;28;20386;-45
2021/06/11 07:00:32;;;;;;;12.93;8.25;;;20.50;99.90;;;;;;5110203;27;20011;-47
2021/06/11 07:02:59;;;;;;;10.75;7.30;;;20.60;99.50;;;;;;5117904;27;20105;-43
2021/06/11 07:05:25;;;;;;;7.95;6.43;;;20.70;99.80;;;;;;5126217;27;20028;-44
2021/06/11 07:07:51;;;;;;;11.40;7.15;;;20.80;99.50;;;;;;5125175;27;20034;-44
2021/06/11 07:10:16;;;;;;;7.47;6.15;;;20.80;98.10;;;;;;5125552;27;20058;-44
2021/06/11 07:12:42;;;;;;;10.07;6.00;;;20.90;98.40;;;;;;5085141;28;20055;-45
2021/06/11 07:15:11;;;;;;;9.45;5.85;;;21.10;98.80;;;;;;5086492;28;20124;-45
2021/06/11 07:17:37;;;;;;;9.27;6.25;;;21.10;98.00;;;;;;5090903;28;20020;-44
2021/06/11 07:20:04;;;;;;;11.15;6.30;;;21.20;97.40;;;;;;5094699;28;20053;-46
2021/06/11 07:22:30;;;;;;;9.15;5.95;;;21.30;97.20;;;;;;5096152;28;20404;-43
2021/06/11 07:24:55;;;;;;;6.93;5.70;;;21.40;97.80;;;;;;5096130;28;20094;-44
2021/06/11 07:27:21;;;;;;;10.30;5.95;;;21.50;96.80;;;;;;5097689;28;20035;-44
2021/06/11 07:29:48;;;;;;;8.73;5.18;;;21.60;96.90;;;;;;5094414;28;20035;-44
2021/06/11 07:32:16;;;;;;;6.32;5.13;;;21.80;96.60;;;;;;5100847;28;20028;-43
2021/06/11 07:34:43;;;;;;;10.40;5.43;;;21.90;95.60;;;;;;5095629;28;20111;-44
2021/06/11 07:37:08;;;;;;;9.18;4.32;;;22.10;95.70;;;;;;5098013;28;20020;-44
2021/06/11 07:39:34;;;;;;;8.50;5.47;;;22.30;96.10;;;;;;5097600;28;20020;-44
2021/06/11 07:42:00;;;;;;;7.10;4.90;;;22.60;97.10;;;;;;5096956;28;20020;-45
2021/06/11 07:44:26;;;;;;;8.70;4.50;;;22.90;94.80;;;;;;5098902;28;20034;-45
2021/06/11 07:46:51;;;;;;;6.13;4.05;;;23.20;93.90;;;;;;5094470;28;20102;-45
2021/06/11 07:49:17;;;;;;;7.03;4.05;;;23.70;92.50;;;;;;5097775;28;20085;-44
2021/06/11 07:51:43;;;;;;;6.30;4.13;;;23.90;91.90;;;;;;5095772;28;20094;-45
2021/06/11 07:54:09;;;;;;;6.38;4.30;;;24.10;90.50;;;;;;5100684;28;20024;-44
2021/06/11 07:56:36;;;;;;;7.82;4.85;;;24.30;90.80;;;;;;5103967;28;20059;-45
2021/06/11 07:59:02;;;;;;;6.85;3.88;;;24.50;89.20;;;;;;5102764;28;20455;-45
2021/06/11 08:01:28;;;;;;;8.65;4.45;;;24.70;84.10;;;;;;5095943;28;20086;-44
2021/06/11 08:03:53;;;;;;;6.70;3.78;;;24.80;84.00;;;;;;5088635;28;20020;-45
2021/06/11 08:06:19;;;;;;;5.88;4.45;;;24.70;82.60;;;;;;5093215;28;20090;-45
2021/06/11 08:08:44;;;;;;;5.45;3.83;;;25.10;86.10;;;;;;5090084;28;20083;-45
2021/06/11 08:11:10;;;;;;;9.63;5.28;;;25.20;79.80;;;;;;5092404;28;20038;-44
2021/06/11 08:13:37;;;;;;;11.43;5.32;;;25.70;76.80;;;;;;5089332;28;20086;-44
2021/06/11 08:16:03;;;;;;;6.68;4.25;;;26.50;76.00;;;;;;5089979;28;20111;-45
2021/06/11 08:18:28;;;;;;;4.25;3.65;;;27.40;75.20;;;;;;5106603;28;20197;-46
2021/06/11 08:20:54;;;;;;;9.15;5.03;;;28.70;66.80;;;;;;5103939;28;20058;-45
2021/06/11 08:23:19;;;;;;;8.68;5.43;;;29.10;62.00;;;;;;5090439;28;20032;-45
2021/06/11 08:25:45;;;;;;;7.97;5.63;;;29.80;58.60;;;;;;5109975;28;20212;-45
2021/06/11 08:28:11;;;;;;;6.93;5.00;;;30.60;55.40;;;;;;5110344;28;20089;-45
2021/06/11 08:30:36;;;;;;;4.75;4.10;;;30.50;55.90;;;;;;5110966;27;20408;-47
2021/06/11 08:33:02;;;;;;;7.57;4.40;;;31.50;54.90;;;;;;5118703;27;20070;-45
2021/06/11 08:35:29;;;;;;;5.50;4.97;;;32.00;53.60;;;;;;5110816;28;20074;-45
2021/06/11 08:37:55;;;;;;;5.72;4.07;;;32.70;50.60;;;;;;5110618;28;20028;-45
2021/06/11 08:40:21;;;;;;;7.68;4.22;;;32.90;50.20;;;;;;5109647;28;20451;-47
2021/06/11 08:42:47;;;;;;;6.57;5.90;;;33.30;49.20;;;;;;5110238;28;20024;-46
2021/06/11 08:45:13;;;;;;;6.30;4.70;;;33.50;47.60;;;;;;5103813;28;20051;-46
2021/06/11 08:47:46;;;;;;;6.45;4.35;;;33.80;48.80;;;;;;5097234;28;20500;-46
2021/06/11 08:50:13;;;;;;;9.98;5.68;;;34.20;47.80;;;;;;5096659;28;20028;-47
2021/06/11 08:52:38;;;;;;;5.82;5.13;;;34.40;45.00;;;;;;5099202;28;20103;-46
2021/06/11 08:55:04;;;;;;;4.97;4.47;;;34.40;43.80;;;;;;5100732;28;20594;-45
2021/06/11 08:57:30;;;;;;;5.50;4.90;;;34.40;44.10;;;;;;5099864;28;20111;-45
2021/06/11 08:59:55;;;;;;;4.80;4.03;;;34.70;44.20;;;;;;5097955;28;20090;-46
2021/06/11 09:02:23;;;;;;;6.18;4.47;;;35.00;45.30;;;;;;5100973;27;20316;-47
2021/06/11 09:04:55;;;;;;;4.45;3.88;;;34.60;43.70;;;;;;5100032;28;20042;-47
2021/06/11 09:07:29;;;;;;;6.03;4.22;;;35.20;42.90;;;;;;5099821;28;20437;-46
2021/06/11 09:10:00;;;;;;;4.07;3.38;;;35.50;44.30;;;;;;5092108;28;20028;-47
2021/06/11 09:12:30;;;;;;;4.20;3.63;;;36.30;41.80;;;;;;5094420;28;20194;-48
2021/06/11 09:15:02;;;;;;;4.35;3.25;;;36.10;41.00;;;;;;5094762;28;20166;-46
2021/06/11 09:17:38;;;;;;;6.38;4.18;;;37.20;39.30;;;;;;5089077;28;20013;-46
2021/06/11 09:20:15;;;;;;;6.60;4.13;;;37.70;37.60;;;;;;5094395;28;20096;-46
2021/06/11 09:22:45;;;;;;;7.53;4.32;;;38.00;38.70;;;;;;5095041;28;20246;-46
2021/06/11 09:25:41;;;;;;;5.50;3.65;;;37.50;36.90;;;;;;5088737;28;20032;-47
2021/06/11 09:28:12;;;;;;;4.68;3.00;;;37.70;39.80;;;;;;5089400;28;20028;-47
2021/06/11 09:30:38;;;;;;;5.53;3.42;;;37.50;38.30;;;;;;5099615;27;20098;-47
2021/06/11 09:33:06;;;;;;;4.43;3.45;;;37.40;36.60;;;;;;5121042;27;20110;-46
2021/06/11 09:35:40;;;;;;;4.50;3.78;;;37.90;36.50;;;;;;5129860;27;20035;-46
2021/06/11 09:38:27;;;;;;;6.45;4.03;;;37.30;37.80;;;;;;5130488;27;20027;-46
2021/06/11 09:40:59;;;;;;;4.85;3.03;;;36.90;37.10;;;;;;5122339;27;20084;-47
2021/06/11 09:43:30;;;;;;;4.70;3.60;;;36.80;37.90;;;;;;5109686;28;20024;-45
2021/06/11 09:46:04;;;;;;;3.97;3.28;;;36.20;39.30;;;;;;5108858;28;20072;-46
2021/06/11 09:48:39;;;;;;;3.92;3.15;;;36.40;41.00;;;;;;5105890;28;20031;-47
2021/06/11 09:51:23;;;;;;;4.43;3.38;;;37.10;37.30;;;;;;5104355;28;20481;-47
2021/06/11 09:53:49;;;;;;;4.70;3.72;;;37.10;38.00;;;;;;5105123;28;20114;-46
2021/06/11 09:56:22;;;;;;;5.18;3.75;;;37.20;36.90;;;;;;5108193;28;20050;-46
2021/06/11 09:58:48;;;;;;;5.05;4.15;;;38.00;36.90;;;;;;5109008;28;20250;-46
2021/06/11 10:01:15;;;;;;;4.28;3.47;;;37.00;37.50;;;;;;5114138;27;20022;-46
2021/06/11 10:03:45;;;;;;;5.00;3.60;;;37.30;40.20;;;;;;5123385;27;20011;-47
2021/06/11 10:06:12;;;;;;;4.05;3.60;;;37.90;37.90;;;;;;5128026;27;20034;-47
2021/06/11 10:08:39;;;;;;;5.63;3.85;;;38.30;37.60;;;;;;5129940;27;20472;-48
2021/06/11 10:11:08;;;;;;;4.70;3.47;;;38.40;37.40;;;;;;5123085;27;20066;-46
2021/06/11 10:13:35;;;;;;;5.18;3.35;;;38.50;37.70;;;;;;5088797;28;20543;-46
2021/06/11 10:16:06;;;;;;;4.63;3.97;;;38.50;37.40;;;;;;5088356;28;20024;-49
2021/06/11 10:18:32;;;;;;;7.50;4.07;;;39.40;35.80;;;;;;5087952;28;20106;-46
2021/06/11 10:21:00;;;;;;;6.03;3.55;;;38.40;36.10;;;;;;5086235;28;20123;-45
2021/06/11 10:23:27;;;;;;;3.88;3.20;;;39.10;36.20;;;;;;5088166;28;20024;-47
2021/06/11 10:25:54;;;;;;;3.83;3.00;;;39.30;36.00;;;;;;5088423;28;20039;-46
2021/06/11 10:28:27;;;;;;;4.18;3.38;;;39.20;35.90;;;;;;5088127;28;20106;-46
2021/06/11 10:31:05;;;;;;;4.68;3.13;;;39.00;35.60;;;;;;5103669;27;20102;-47
2021/06/11 10:33:55;;;;;;;3.97;3.30;;;39.30;38.70;;;;;;5119515;27;20039;-47
2021/06/11 10:36:27;;;;;;;5.00;3.40;;;38.50;36.10;;;;;;5128961;27;20027;-48
2021/06/11 10:38:57;;;;;;;4.18;3.58;;;38.70;40.00;;;;;;5129035;27;20381;-46
2021/06/11 10:41:24;;;;;;;3.78;3.47;;;38.80;37.60;;;;;;5128510;27;20023;-46
2021/06/11 10:43:50;;;;;;;8.00;4.20;;;38.80;36.90;;;;;;5109649;27;20089;-46
2021/06/11 10:46:29;;;;;;;5.72;3.65;;;38.70;36.00;;;;;;5108070;28;20043;-48
2021/06/11 10:49:06;;;;;;;5.97;3.30;;;38.50;37.20;;;;;;5107855;28;20058;-46
2021/06/11 10:51:50;;;;;;;4.20;3.58;;;37.80;37.90;;;;;;5107860;28;20028;-46
2021/06/11 10:54:16;;;;;;;6.97;3.38;;;38.20;36.80;;;;;;5088424;28;20513;-46
2021/06/11 10:57:10;;;;;;;6.65;3.70;;;38.20;37.60;;;;;;5087638;28;20016;-46
2021/06/11 10:59:39;;;;;;;5.38;3.50;;;37.30;37.90;;;;;;5085186;28;20071;-45
2021/06/11 11:02:06;;;;;;;4.72;3.80;;;37.10;38.80;;;;;;5115080;27;20031;-46
2021/06/11 11:04:35;;;;;;;8.25;3.67;;;37.30;38.00;;;;;;5108651;27;20024;-46
2021/06/11 11:07:24;;;;;;;5.53;3.70;;;37.70;40.40;;;;;;5108004;28;20142;-46
2021/06/11 11:09:51;;;;;;;4.28;3.78;;;36.40;38.50;;;;;;5097783;28;20039;-46
2021/06/11 11:12:16;;;;;;;8.30;3.28;;;36.60;39.00;;;;;;5108138;28;20055;-46
2021/06/11 11:14:42;;;;;;;4.22;3.75;;;36.70;41.40;;;;;;5106114;28;20059;-45
2021/06/11 11:17:09;;;;;;;5.15;3.63;;;35.90;41.00;;;;;;5107571;28;20027;-46
2021/06/11 11:19:45;;;;;;;4.05;3.65;;;36.40;39.00;;;;;;5107312;28;20392;-45
2021/06/11 11:22:22;;;;;;;4.75;3.28;;;36.80;39.60;;;;;;5107706;28;20084;-45
2021/06/11 11:24:47;;;;;;;3.20;2.92;;;36.10;42.00;;;;;;5094211;28;20063;-47
2021/06/11 11:27:13;;;;;;;3.42;2.88;;;36.90;39.60;;;;;;5087263;28;20071;-46
2021/06/11 11:29:38;;;;;;;5.40;3.35;;;37.00;39.80;;;;;;5086522;28;20019;-46
2021/06/11 11:32:04;;;;;;;4.38;3.90;;;38.50;39.30;;;;;;5114484;28;20102;-47
2021/06/11 11:34:29;;;;;;;5.80;3.53;;;37.10;39.70;;;;;;5118757;28;20027;-46
2021/06/11 11:36:55;;;;;;;6.90;3.90;;;36.30;39.50;;;;;;5107649;28;20042;-45
2021/06/11 11:39:20;;;;;;;5.40;3.60;;;35.30;41.50;;;;;;5106896;28;20024;-47
2021/06/11 11:41:48;;;;;;;4.47;4.07;;;35.10;42.70;;;;;;5107701;28;20024;-46
2021/06/11 11:44:13;;;;;;;6.80;3.75;;;34.10;41.50;;;;;;5104764;28;20119;-45
2021/06/11 11:46:39;;;;;;;7.15;3.63;;;33.30;43.60;;;;;;5087385;28;20108;-48
2021/06/11 11:49:04;;;;;;;3.70;3.40;;;33.50;45.60;;;;;;5087039;28;20443;-46
2021/06/11 11:51:30;;;;;;;6.30;3.50;;;34.30;44.40;;;;;;5087636;28;20100;-46
2021/06/11 11:53:55;;;;;;;4.60;4.20;;;34.70;44.20;;;;;;5086512;28;20035;-46
2021/06/11 11:56:21;;;;;;;5.07;3.97;;;35.20;44.10;;;;;;5105319;28;20548;-45
2021/06/11 11:58:46;;;;;;;3.85;3.25;;;35.20;42.10;;;;;;5107876;28;20084;-46
2021/06/11 12:01:12;;;;;;;8.65;4.00;;;35.20;41.40;;;;;;5115743;27;20507;-45
2021/06/11 12:03:38;;;;;;;6.60;4.47;;;34.90;44.10;;;;;;5125711;27;20461;-45
2021/06/11 12:06:04;;;;;;;6.90;4.28;;;34.90;42.60;;;;;;5118068;27;20095;-45
2021/06/11 12:08:29;;;;;;;7.57;3.97;;;34.30;44.90;;;;;;5110137;28;20038;-46
2021/06/11 12:10:55;;;;;;;4.32;3.88;;;34.10;46.20;;;;;;5110634;28;20557;-45
2021/06/11 12:13:22;;;;;;;6.22;3.92;;;33.70;45.20;;;;;;5111361;28;20026;-45
2021/06/11 12:15:47;;;;;;;4.45;3.45;;;33.70;45.30;;;;;;5103393;28;20111;-44
2021/06/11 12:18:13;;;;;;;7.15;3.90;;;33.00;46.60;;;;;;5090729;28;20426;-45
2021/06/11 12:20:39;;;;;;;4.97;4.20;;;32.50;46.50;;;;;;5090112;28;20020;-45
2021/06/11 12:23:04;;;;;;;6.50;4.38;;;31.50;47.20;;;;;;5091084;28;20406;-45
2021/06/11 12:25:31;;;;;;;5.97;3.47;;;31.50;51.40;;;;;;5093113;28;20035;-46
2021/06/11 12:27:57;;;;;;;4.00;3.60;;;31.70;47.60;;;;;;5110849;28;20023;-46
2021/06/11 12:30:22;;;;;;;5.28;4.03;;;31.80;45.80;;;;;;5111403;27;20035;-45
2021/06/11 12:32:48;;;;;;;7.22;5.28;;;31.30;49.00;;;;;;5122223;27;20019;-47
2021/06/11 12:35:14;;;;;;;5.50;4.20;;;30.70;48.50;;;;;;5131163;27;20035;-45
2021/06/11 12:37:39;;;;;;;5.20;3.70;;;31.00;48.70;;;;;;5111956;27;20513;-46
2021/06/11 12:40:06;;;;;;;4.95;3.88;;;31.10;49.30;;;;;;5110212;28;20066;-45
2021/06/11 12:42:33;;;;;;;5.82;4.00;;;30.90;49.30;;;;;;5110458;28;20435;-46
2021/06/11 12:44:59;;;;;;;5.88;3.85;;;31.30;48.70;;;;;;5109256;28;20027;-46